createdAt,value
2022-11-06T00:00:49.562Z,9.20
2022-11-06T00:03:17.788Z,9.20
2022-11-06T00:06:03.426Z,9.30
2022-11-06T00:08:33.886Z,9.30
2022-11-06T00:11:02.717Z,9.20
2022-11-06T00:13:32.508Z,9.10
2022-11-06T00:16:04.789Z,9.20
2022-11-06T00:18:33.207Z,9.10
2022-11-06T00:21:01.387Z,9.10
2022-11-06T00:23:29.590Z,9.00
2022-11-06T00:25:57.779Z,9.00
2022-11-06T00:28:26.030Z,9.00
2022-11-06T00:31:03.748Z,9.00
2022-11-06T00:33:32.354Z,8.90
2022-11-06T00:36:03.360Z,8.90
2022-11-06T00:38:31.796Z,8.90
2022-11-06T00:41:04.795Z,8.90
2022-11-06T00:43:33.731Z,8.90
2022-11-06T00:46:08.088Z,8.90
2022-11-06T00:48:37.394Z,8.80
2022-11-06T00:51:06.519Z,8.90
2022-11-06T00:53:35.015Z,8.90
2022-11-06T00:56:07.769Z,8.80
2022-11-06T00:58:36.359Z,8.90
2022-11-06T01:01:10.879Z,8.90
2022-11-06T01:03:39.710Z,8.80
2022-11-06T01:06:09.248Z,8.80
2022-11-06T01:08:38.239Z,8.80
2022-11-06T01:11:13.805Z,8.90
2022-11-06T01:13:42.319Z,8.80
2022-11-06T01:16:16.499Z,8.80
2022-11-06T01:18:45.730Z,8.80
2022-11-06T01:21:16.176Z,8.70
2022-11-06T01:23:45.124Z,8.70
2022-11-06T01:26:21.191Z,8.60
2022-11-06T01:28:57.939Z,8.70
2022-11-06T01:31:29.641Z,8.60
2022-11-06T01:33:59.198Z,8.60
2022-11-06T01:36:28.058Z,8.50
2022-11-06T01:38:58.640Z,8.40
2022-11-06T01:41:29.417Z,8.40
2022-11-06T01:43:59.578Z,8.30
2022-11-06T01:46:30.821Z,8.30
2022-11-06T01:49:06.690Z,8.30
2022-11-06T01:51:42.974Z,8.20
2022-11-06T01:54:12.694Z,8.20
2022-11-06T01:56:42.562Z,8.20
2022-11-06T01:59:14.455Z,8.20
2022-11-06T02:01:44.439Z,8.20
2022-11-06T02:04:16.739Z,8.20
2022-11-06T02:06:46.385Z,8.10
2022-11-06T02:09:14.851Z,8.10
2022-11-06T02:11:45.401Z,8.00
2022-11-06T02:14:20.828Z,8.00
2022-11-06T02:16:55.863Z,7.90
2022-11-06T02:19:44.972Z,7.90
2022-11-06T02:22:25.781Z,7.80
2022-11-06T02:25:16.644Z,7.70
2022-11-06T02:27:49.539Z,7.70
2022-11-06T02:30:19.169Z,7.70
2022-11-06T02:32:54.834Z,7.70
2022-11-06T02:35:27.879Z,7.60
2022-11-06T02:38:00.198Z,7.60
2022-11-06T02:40:33.638Z,7.60
2022-11-06T02:43:07.412Z,7.50
2022-11-06T02:45:42.692Z,7.50
2022-11-06T02:48:13.848Z,7.50
2022-11-06T02:50:45.646Z,7.40
2022-11-06T02:53:16.576Z,7.40
2022-11-06T02:55:49.480Z,7.40
2022-11-06T02:58:22.804Z,7.40
2022-11-06T03:00:58.965Z,7.40
2022-11-06T03:03:31.496Z,7.40
2022-11-06T03:06:05.548Z,7.40
2022-11-06T03:08:37.919Z,7.40
2022-11-06T03:11:13.708Z,7.30
2022-11-06T03:13:53.903Z,7.40
2022-11-06T03:16:32.409Z,7.30
2022-11-06T03:19:08.064Z,7.30
2022-11-06T03:21:44.413Z,7.20
2022-11-06T03:24:17.652Z,7.20
2022-11-06T03:26:49.960Z,7.20
2022-11-06T03:29:22.875Z,7.20
2022-11-06T03:31:54.844Z,7.30
2022-11-06T03:34:30.956Z,7.20
2022-11-06T03:37:05.228Z,7.40
2022-11-06T03:39:37.645Z,7.30
2022-11-06T03:42:08.703Z,7.30
2022-11-06T03:44:41.970Z,7.20
2022-11-06T03:47:14.254Z,7.10
2022-11-06T03:49:47.024Z,7.00
2022-11-06T03:52:20.497Z,6.90
2022-11-06T03:54:54.646Z,6.90
2022-11-06T03:57:28.306Z,6.80
2022-11-06T04:00:02.324Z,6.80
2022-11-06T04:02:43.980Z,6.80
2022-11-06T04:05:17.308Z,6.70
2022-11-06T04:08:09.742Z,6.60
2022-11-06T04:11:00.804Z,6.60
2022-11-06T04:13:50.541Z,6.60
2022-11-06T04:16:20.957Z,6.60
2022-11-06T04:18:49.131Z,6.50
2022-11-06T04:21:26.054Z,6.50
2022-11-06T04:24:33.206Z,6.40
2022-11-06T04:27:30.588Z,6.40
2022-11-06T04:30:07.299Z,6.50
2022-11-06T04:32:59.626Z,6.50
2022-11-06T04:35:35.471Z,6.50
2022-11-06T04:38:09.012Z,6.50
2022-11-06T04:40:48.281Z,6.60
2022-11-06T04:43:24.495Z,6.60
2022-11-06T04:45:57.068Z,6.50
2022-11-06T04:48:27.049Z,6.50
2022-11-06T04:51:00.524Z,6.40
2022-11-06T04:53:30.863Z,6.40
2022-11-06T04:56:06.930Z,6.50
2022-11-06T04:58:35.248Z,6.50
2022-11-06T05:01:03.491Z,6.50
2022-11-06T05:03:33.193Z,6.40
2022-11-06T05:06:01.411Z,6.50
2022-11-06T05:08:29.670Z,6.50
2022-11-06T05:10:57.784Z,6.50
2022-11-06T05:13:26.012Z,6.50
2022-11-06T05:15:57.193Z,6.40
2022-11-06T05:18:25.883Z,6.40
2022-11-06T05:21:15.799Z,6.50
2022-11-06T05:23:43.072Z,6.50
2022-11-06T05:26:11.262Z,6.50
2022-11-06T05:28:39.538Z,6.50
2022-11-06T05:31:07.755Z,6.40
2022-11-06T05:33:35.974Z,6.40
2022-11-06T05:36:06.788Z,6.40
2022-11-06T05:38:35.197Z,6.40
2022-11-06T05:41:03.376Z,6.40
2022-11-06T05:43:31.636Z,6.50
2022-11-06T05:46:00.602Z,6.40
2022-11-06T05:48:29.190Z,6.40
2022-11-06T05:51:02.316Z,6.40
2022-11-06T05:53:34.046Z,6.40
2022-11-06T05:56:02.624Z,6.20
2022-11-06T05:58:30.849Z,6.20
2022-11-06T06:00:59.647Z,6.40
2022-11-06T06:03:28.116Z,6.50
2022-11-06T06:05:56.550Z,6.60
2022-11-06T06:08:24.690Z,6.30
2022-11-06T06:10:54.308Z,6.30
2022-11-06T06:13:22.513Z,6.40
2022-11-06T06:15:50.722Z,6.30
2022-11-06T06:18:18.862Z,6.20
2022-11-06T06:20:47.337Z,6.20
2022-11-06T06:23:15.469Z,6.10
2022-11-06T06:25:43.756Z,6.20
2022-11-06T06:28:13.494Z,6.30
2022-11-06T06:30:42.106Z,6.40
2022-11-06T06:33:10.267Z,6.50
2022-11-06T06:35:38.504Z,6.50
2022-11-06T06:38:06.636Z,6.50
2022-11-06T06:40:34.982Z,6.70
2022-11-06T06:43:03.254Z,7.10
2022-11-06T06:45:33.252Z,7.30
2022-11-06T06:48:04.345Z,7.30
2022-11-06T06:50:33.033Z,7.20
2022-11-06T06:53:01.343Z,7.00
2022-11-06T06:55:29.686Z,7.00
2022-11-06T06:57:58.923Z,7.00
2022-11-06T07:00:27.834Z,6.80
2022-11-06T07:02:57.375Z,7.10
2022-11-06T07:05:25.990Z,7.10
2022-11-06T07:07:54.155Z,7.10
2022-11-06T07:10:22.350Z,7.00
2022-11-06T07:12:50.519Z,7.00
2022-11-06T07:15:18.844Z,7.30
2022-11-06T07:17:47.086Z,7.50
2022-11-06T07:20:16.674Z,7.20
2022-11-06T07:22:44.830Z,7.20
2022-11-06T07:25:13.258Z,7.30
2022-11-06T07:27:41.497Z,7.00
2022-11-06T07:30:10.795Z,6.90
2022-11-06T07:32:39.021Z,6.70
2022-11-06T07:35:08.190Z,7.30
2022-11-06T07:37:38.284Z,7.60
2022-11-06T07:40:08.947Z,7.70
2022-11-06T07:42:42.275Z,8.10
2022-11-06T07:45:15.776Z,8.00
2022-11-06T07:47:43.990Z,8.30
2022-11-06T07:50:12.146Z,7.70
2022-11-06T07:52:41.847Z,7.80
2022-11-06T07:55:10.800Z,7.70
2022-11-06T07:57:39.097Z,8.00
2022-11-06T08:00:08.709Z,8.40
2022-11-06T08:02:45.073Z,8.10
2022-11-06T08:05:13.371Z,7.50
2022-11-06T08:07:42.951Z,7.80
2022-11-06T08:10:11.478Z,8.10
2022-11-06T08:12:39.666Z,8.50
2022-11-06T08:15:08.595Z,8.00
2022-11-06T08:17:37.563Z,7.70
2022-11-06T08:20:06.862Z,8.10
2022-11-06T08:22:35.041Z,8.30
2022-11-06T08:25:04.867Z,7.90
2022-11-06T08:27:33.283Z,8.20
2022-11-06T08:30:01.538Z,8.40
2022-11-06T08:32:29.847Z,8.30
2022-11-06T08:34:58.086Z,8.80
2022-11-06T08:37:26.241Z,9.00
2022-11-06T08:39:54.497Z,9.00
2022-11-06T08:42:24.317Z,8.70
2022-11-06T08:44:52.516Z,9.00
2022-11-06T08:47:20.706Z,8.90
2022-11-06T08:49:49.054Z,8.70
2022-11-06T08:52:17.200Z,8.90
2022-11-06T08:54:45.419Z,9.10
2022-11-06T08:57:13.691Z,9.10
2022-11-06T08:59:43.285Z,9.00
2022-11-06T09:02:13.636Z,9.50
2022-11-06T09:04:42.027Z,9.00
2022-11-06T09:07:10.444Z,8.60
2022-11-06T09:09:38.769Z,8.50
2022-11-06T09:12:07.935Z,8.80
2022-11-06T09:14:36.695Z,8.60
2022-11-06T09:17:06.208Z,8.70
2022-11-06T09:19:34.553Z,9.40
2022-11-06T09:22:02.776Z,9.70
2022-11-06T09:24:50.054Z,10.10
2022-11-06T09:27:19.313Z,10.30
2022-11-06T09:29:48.978Z,10.30
2022-11-06T09:32:18.544Z,10.50
2022-11-06T09:34:46.916Z,10.20
2022-11-06T09:37:15.168Z,9.90
2022-11-06T09:39:43.308Z,10.20
2022-11-06T09:42:21.564Z,10.30
2022-11-06T09:45:04.338Z,10.60
2022-11-06T09:47:39.012Z,10.60
2022-11-06T09:50:13.512Z,10.40
2022-11-06T09:52:46.902Z,10.20
2022-11-06T09:55:20.402Z,9.90
2022-11-06T09:57:52.713Z,10.20
2022-11-06T10:00:21.274Z,10.50
2022-11-06T10:02:54.921Z,10.90
2022-11-06T10:05:27.387Z,11.00
2022-11-06T10:07:58.246Z,10.90
2022-11-06T10:10:32.104Z,10.70
2022-11-06T10:13:20.390Z,10.30
2022-11-06T10:15:55.743Z,9.70
2022-11-06T10:18:38.960Z,10.20
2022-11-06T10:21:12.598Z,10.10
2022-11-06T10:23:48.088Z,10.50
2022-11-06T10:26:18.887Z,10.30
2022-11-06T10:29:12.379Z,10.50
2022-11-06T10:31:48.537Z,10.20
2022-11-06T10:34:22.889Z,9.70
2022-11-06T10:36:55.503Z,9.20
2022-11-06T10:39:26.208Z,9.00
2022-11-06T10:42:00.007Z,9.30
2022-11-06T10:44:34.111Z,9.80
2022-11-06T10:47:07.417Z,10.10
2022-11-06T10:49:42.837Z,10.30
2022-11-06T10:52:25.577Z,10.80
2022-11-06T10:55:04.290Z,10.70
2022-11-06T10:57:42.117Z,10.70
2022-11-06T11:00:13.733Z,10.80
2022-11-06T11:02:47.494Z,11.00
2022-11-06T11:05:21.442Z,11.40
2022-11-06T11:07:51.967Z,11.00
2022-11-06T11:10:31.693Z,10.90
2022-11-06T11:13:07.934Z,10.70
2022-11-06T11:15:44.719Z,10.40
2022-11-06T11:18:23.120Z,10.80
2022-11-06T11:21:04.877Z,10.10
2022-11-06T11:23:33.199Z,9.80
2022-11-06T11:26:20.082Z,9.70
2022-11-06T11:28:55.414Z,9.50
2022-11-06T11:31:32.346Z,9.00
2022-11-06T11:34:04.003Z,9.20
2022-11-06T11:36:52.366Z,9.00
2022-11-06T11:39:23.384Z,9.20
2022-11-06T11:41:51.794Z,8.80
2022-11-06T11:44:21.345Z,9.10
2022-11-06T11:46:51.358Z,9.00
2022-11-06T11:49:31.033Z,8.90
2022-11-06T11:52:02.700Z,9.00
2022-11-06T11:54:33.420Z,8.90
2022-11-06T11:57:05.169Z,9.00
2022-11-06T11:59:40.416Z,8.90
2022-11-06T12:02:23.588Z,9.00
2022-11-06T12:04:57.266Z,9.10
2022-11-06T12:07:30.368Z,9.10
2022-11-06T12:09:59.833Z,9.10
2022-11-06T12:12:32.068Z,9.00
2022-11-06T12:15:18.733Z,9.10
2022-11-06T12:17:51.801Z,9.10
2022-11-06T12:20:25.509Z,9.20
2022-11-06T12:22:57.247Z,9.20
2022-11-06T12:25:28.644Z,9.20
2022-11-06T12:28:00.220Z,9.20
2022-11-06T12:30:29.947Z,9.20
2022-11-06T12:33:05.422Z,9.30
2022-11-06T12:35:38.697Z,9.30
2022-11-06T12:38:19.204Z,9.40
2022-11-06T12:40:52.050Z,9.40
2022-11-06T12:43:28.386Z,9.40
2022-11-06T12:46:10.157Z,9.50
2022-11-06T12:49:03.565Z,9.50
2022-11-06T12:51:39.892Z,9.60
2022-11-06T12:54:24.957Z,9.60
2022-11-06T12:57:02.648Z,9.60
2022-11-06T12:59:45.559Z,9.70
2022-11-06T13:02:26.268Z,9.70
2022-11-06T13:05:02.626Z,9.70
2022-11-06T13:07:49.249Z,9.80
2022-11-06T13:10:31.952Z,9.80
2022-11-06T13:13:18.640Z,9.80
2022-11-06T13:15:54.238Z,9.80
2022-11-06T13:18:26.855Z,9.80
2022-11-06T13:21:00.631Z,9.80
2022-11-06T13:23:33.665Z,9.80
2022-11-06T13:26:09.516Z,9.80
2022-11-06T13:28:42.534Z,9.80
2022-11-06T13:31:14.405Z,9.90
2022-11-06T13:33:48.035Z,9.80
2022-11-06T13:36:17.113Z,9.90
2022-11-06T13:38:52.637Z,10.20
2022-11-06T13:41:26.401Z,10.10
2022-11-06T13:43:59.939Z,9.90
2022-11-06T13:46:37.038Z,9.80
2022-11-06T13:49:19.515Z,9.80
2022-11-06T13:51:53.952Z,9.70
2022-11-06T13:54:36.203Z,9.60
2022-11-06T13:57:49.744Z,9.30
2022-11-06T14:00:28.014Z,9.60
2022-11-06T14:03:20.082Z,9.80
2022-11-06T14:05:55.614Z,9.90
2022-11-06T14:08:29.046Z,10.20
2022-11-06T14:11:01.188Z,10.20
2022-11-06T14:13:34.369Z,9.90
2022-11-06T14:16:25.395Z,9.50
2022-11-06T14:18:59.495Z,9.20
2022-11-06T14:21:50.706Z,9.10
2022-11-06T14:24:34.763Z,8.90
2022-11-06T14:27:06.763Z,8.80
2022-11-06T14:30:05.541Z,8.70
2022-11-06T14:32:37.048Z,8.60
2022-11-06T14:35:51.275Z,8.50
2022-11-06T14:38:37.578Z,8.40
2022-11-06T14:41:49.228Z,8.30
2022-11-06T14:44:29.281Z,8.10
2022-11-06T14:47:02.274Z,7.80
2022-11-06T14:49:37.676Z,7.70
2022-11-06T14:52:09.192Z,7.70
2022-11-06T14:54:41.530Z,7.60
2022-11-06T14:57:13.986Z,7.50
2022-11-06T14:59:43.168Z,7.40
2022-11-06T15:02:20.524Z,7.30
2022-11-06T15:04:54.511Z,7.20
2022-11-06T15:08:03.345Z,7.10
2022-11-06T15:10:53.852Z,7.10
2022-11-06T15:13:30.022Z,6.90
2022-11-06T15:16:13.439Z,6.80
2022-11-06T15:18:46.161Z,6.80
2022-11-06T15:21:23.230Z,6.80
2022-11-06T15:24:05.390Z,6.80
2022-11-06T15:26:38.991Z,6.80
2022-11-06T15:29:19.077Z,6.70
2022-11-06T15:31:51.001Z,6.70
2022-11-06T15:34:24.908Z,6.60
2022-11-06T15:36:56.489Z,6.70
2022-11-06T15:39:39.599Z,6.60
2022-11-06T15:42:15.135Z,6.60
2022-11-06T15:44:45.043Z,6.60
2022-11-06T15:47:22.696Z,6.50
2022-11-06T15:50:09.746Z,6.30
2022-11-06T15:52:38.221Z,6.20
2022-11-06T15:55:07.241Z,6.30
2022-11-06T15:57:35.645Z,6.30
2022-11-06T16:00:12.451Z,6.20
2022-11-06T16:02:51.592Z,6.20
2022-11-06T16:05:22.984Z,6.30
2022-11-06T16:07:52.300Z,6.20
2022-11-06T16:10:22.032Z,6.10
2022-11-06T16:12:51.338Z,6.20
2022-11-06T16:15:51.732Z,6.20
2022-11-06T16:18:25.242Z,6.10
2022-11-06T16:20:58.875Z,6.10
2022-11-06T16:23:37.770Z,6.10
2022-11-06T16:26:10.005Z,6.20
2022-11-06T16:28:44.030Z,6.10
2022-11-06T16:31:17.031Z,6.10
2022-11-06T16:33:56.249Z,6.10
2022-11-06T16:36:27.571Z,6.00
2022-11-06T16:39:16.249Z,6.10
2022-11-06T16:42:03.367Z,6.10
2022-11-06T16:44:49.360Z,6.10
2022-11-06T16:47:19.438Z,6.20
2022-11-06T16:49:53.716Z,6.10
2022-11-06T16:52:30.281Z,6.10
2022-11-06T16:55:02.066Z,6.10
2022-11-06T16:57:33.338Z,6.00
2022-11-06T17:00:05.480Z,6.00
2022-11-06T17:02:37.435Z,6.10
2022-11-06T17:05:11.619Z,6.10
2022-11-06T17:07:42.320Z,6.00
2022-11-06T17:10:40.466Z,5.90
2022-11-06T17:13:17.769Z,6.00
2022-11-06T17:15:48.399Z,5.90
2022-11-06T17:18:20.784Z,5.90
2022-11-06T17:20:52.746Z,6.00
2022-11-06T17:23:22.897Z,5.90
2022-11-06T17:25:52.536Z,5.80
2022-11-06T17:28:22.876Z,5.80
2022-11-06T17:30:51.411Z,5.70
2022-11-06T17:33:20.045Z,5.70
2022-11-06T17:35:49.333Z,5.70
2022-11-06T17:38:18.481Z,5.70
2022-11-06T17:40:48.472Z,5.80
2022-11-06T17:43:17.186Z,5.80
2022-11-06T17:45:48.092Z,5.80
2022-11-06T17:48:16.589Z,5.80
2022-11-06T17:51:02.077Z,5.80
2022-11-06T17:53:30.305Z,5.80
2022-11-06T17:56:03.079Z,5.90
2022-11-06T17:58:34.331Z,5.90
2022-11-06T18:01:07.282Z,5.70
2022-11-06T18:03:36.910Z,5.70
2022-11-06T18:06:07.403Z,5.80
2022-11-06T18:08:35.639Z,5.80
2022-11-06T18:11:05.228Z,5.70
2022-11-06T18:13:33.760Z,5.80
2022-11-06T18:16:02.246Z,5.70
2022-11-06T18:18:30.542Z,5.80
2022-11-06T18:21:00.577Z,5.60
2022-11-06T18:23:28.957Z,5.60
2022-11-06T18:25:58.110Z,5.60
2022-11-06T18:28:27.676Z,5.50
2022-11-06T18:30:55.916Z,5.40
2022-11-06T18:33:26.811Z,5.30
2022-11-06T18:35:54.932Z,5.30
2022-11-06T18:38:23.217Z,5.20
2022-11-06T18:40:54.001Z,5.20
2022-11-06T18:43:22.229Z,5.10
2022-11-06T18:45:52.343Z,5.10
2022-11-06T18:48:21.898Z,5.10
2022-11-06T18:50:50.361Z,5.10
2022-11-06T18:53:18.659Z,5.10
2022-11-06T18:55:51.403Z,5.10
2022-11-06T18:58:20.165Z,5.10
2022-11-06T19:00:48.314Z,5.10
2022-11-06T19:03:18.002Z,5.10
2022-11-06T19:05:51.039Z,5.10
2022-11-06T19:08:20.972Z,5.10
2022-11-06T19:10:51.591Z,5.10
2022-11-06T19:13:20.044Z,5.10
2022-11-06T19:15:51.191Z,5.00
2022-11-06T19:18:20.844Z,4.80
2022-11-06T19:20:54.371Z,4.70
2022-11-06T19:23:22.740Z,4.70
2022-11-06T19:26:10.330Z,4.70
2022-11-06T19:28:39.408Z,4.70
2022-11-06T19:31:07.847Z,4.70
2022-11-06T19:33:37.698Z,4.70
2022-11-06T19:36:06.877Z,4.70
2022-11-06T19:38:37.206Z,4.60
2022-11-06T19:41:05.939Z,4.50
2022-11-06T19:43:38.239Z,4.70
2022-11-06T19:46:08.358Z,4.60
2022-11-06T19:48:41.598Z,4.60
2022-11-06T19:51:11.608Z,4.60
2022-11-06T19:53:41.999Z,4.50
2022-11-06T19:56:16.477Z,4.50
2022-11-06T19:58:44.888Z,4.60
2022-11-06T20:01:16.509Z,4.50
2022-11-06T20:03:46.356Z,4.60
2022-11-06T20:06:15.406Z,4.50
2022-11-06T20:08:48.109Z,4.50
2022-11-06T20:11:16.584Z,4.50
2022-11-06T20:13:46.283Z,4.50
2022-11-06T20:16:16.527Z,4.60
2022-11-06T20:18:50.920Z,4.60
2022-11-06T20:21:19.459Z,4.50
2022-11-06T20:23:47.727Z,4.60
2022-11-06T20:26:16.867Z,4.40
2022-11-06T20:28:46.870Z,4.20
2022-11-06T20:31:18.582Z,4.10
2022-11-06T20:33:48.835Z,4.10
2022-11-06T20:36:20.558Z,4.00
2022-11-06T20:38:48.940Z,4.10
2022-11-06T20:41:18.305Z,4.00
2022-11-06T20:43:47.213Z,3.90
2022-11-06T20:46:16.885Z,3.80
2022-11-06T20:48:46.075Z,3.90
2022-11-06T20:51:17.771Z,3.80
2022-11-06T20:53:46.567Z,3.80
2022-11-06T20:56:17.642Z,3.70
2022-11-06T20:58:46.442Z,3.70
2022-11-06T21:01:18.384Z,3.70
2022-11-06T21:03:48.450Z,3.70
2022-11-06T21:06:18.904Z,3.70
2022-11-06T21:08:47.418Z,3.60
2022-11-06T21:11:18.055Z,3.60
2022-11-06T21:13:48.198Z,3.60
2022-11-06T21:16:18.642Z,3.60
2022-11-06T21:18:48.527Z,3.60
2022-11-06T21:21:22.459Z,3.50
2022-11-06T21:23:51.605Z,3.50
2022-11-06T21:26:21.316Z,3.50
2022-11-06T21:28:50.093Z,3.50
2022-11-06T21:31:20.504Z,3.60
2022-11-06T21:33:50.366Z,3.50
2022-11-06T21:36:21.895Z,3.50
2022-11-06T21:38:52.989Z,3.50
2022-11-06T21:41:23.287Z,3.60
2022-11-06T21:43:51.443Z,3.50
2022-11-06T21:46:21.081Z,3.50
2022-11-06T21:48:50.319Z,3.60
2022-11-06T21:51:21.991Z,3.60
2022-11-06T21:54:07.873Z,3.60
2022-11-06T21:56:38.261Z,3.70
2022-11-06T21:59:08.863Z,3.70
2022-11-06T22:01:37.889Z,3.80
2022-11-06T22:04:07.342Z,3.80
2022-11-06T22:06:37.039Z,3.80
2022-11-06T22:09:06.908Z,3.80
2022-11-06T22:11:38.526Z,4.00
2022-11-06T22:14:09.000Z,4.20
2022-11-06T22:16:39.273Z,4.30
2022-11-06T22:19:08.811Z,4.00
2022-11-06T22:21:40.104Z,3.70
2022-11-06T22:24:12.325Z,3.60
2022-11-06T22:26:40.865Z,3.50
2022-11-06T22:29:14.693Z,3.40
2022-11-06T22:31:43.035Z,3.40
2022-11-06T22:34:14.470Z,3.40
2022-11-06T22:36:44.102Z,3.20
2022-11-06T22:39:15.245Z,3.10
2022-11-06T22:41:43.522Z,3.00
2022-11-06T22:44:12.673Z,3.00
2022-11-06T22:46:41.419Z,3.10
2022-11-06T22:49:09.746Z,3.20
2022-11-06T22:51:38.321Z,3.10
2022-11-06T22:54:07.917Z,3.10
2022-11-06T22:56:36.229Z,3.00
2022-11-06T22:59:07.813Z,3.00
2022-11-06T23:01:41.967Z,2.90
2022-11-06T23:04:15.804Z,2.90
2022-11-06T23:06:47.206Z,2.80
2022-11-06T23:09:17.058Z,2.90
2022-11-06T23:11:49.174Z,2.90
2022-11-06T23:14:19.949Z,2.80
2022-11-06T23:17:00.909Z,2.70
2022-11-06T23:19:31.945Z,2.70
2022-11-06T23:22:18.086Z,2.70
2022-11-06T23:24:47.679Z,2.70
2022-11-06T23:27:16.095Z,2.70
2022-11-06T23:29:44.323Z,2.70
2022-11-06T23:32:12.646Z,2.80
2022-11-06T23:34:43.871Z,2.80
2022-11-06T23:37:12.086Z,2.70
2022-11-06T23:39:40.363Z,2.80
2022-11-06T23:42:15.483Z,2.80
2022-11-06T23:45:01.575Z,3.00
2022-11-06T23:47:31.101Z,3.00
2022-11-06T23:50:00.766Z,3.20
2022-11-06T23:52:29.380Z,3.40
2022-11-06T23:55:01.401Z,3.60
2022-11-06T23:57:35.145Z,3.70
